createdAt,value
2022-09-15T00:01:32.799Z,20.95
2022-09-15T00:04:36.209Z,19.41
2022-09-15T00:07:38.976Z,18.43
2022-09-15T00:10:53.591Z,17.20
2022-09-15T00:13:58.392Z,16.93
2022-09-15T00:17:00.783Z,16.83
2022-09-15T00:23:27.907Z,16.52
2022-09-15T00:26:31.739Z,16.41
2022-09-15T00:29:34.451Z,16.22
2022-09-15T00:32:36.493Z,16.28
2022-09-15T00:35:51.246Z,16.30
2022-09-15T00:38:55.404Z,16.59
2022-09-15T00:41:58.039Z,16.69
2022-09-15T00:45:03.682Z,16.72
2022-09-15T00:48:08.883Z,16.63
2022-09-15T00:51:14.355Z,16.66
2022-09-15T00:54:20.669Z,17.00
2022-09-15T00:57:35.387Z,17.11
2022-09-15T01:00:44.442Z,16.80
2022-09-15T01:03:46.955Z,16.94
2022-09-15T01:06:55.700Z,17.06
2022-09-15T01:10:01.149Z,17.09
2022-09-15T01:13:07.515Z,17.28
2022-09-15T01:16:31.645Z,17.79
2022-09-15T01:20:12.200Z,17.63
2022-09-15T01:23:42.399Z,17.30
2022-09-15T01:26:57.319Z,17.28
2022-09-15T01:30:16.261Z,17.54
2022-09-15T01:33:31.247Z,17.81
2022-09-15T01:36:45.491Z,17.81
2022-09-15T01:39:51.186Z,17.55
2022-09-15T01:42:54.541Z,17.57
2022-09-15T01:45:58.932Z,17.67
2022-09-15T01:49:03.659Z,17.64
2022-09-15T01:52:06.902Z,17.68
2022-09-15T01:55:17.204Z,17.84
2022-09-15T01:58:20.235Z,17.50
2022-09-15T02:01:36.963Z,17.54
2022-09-15T02:04:54.110Z,18.02
2022-09-15T02:08:10.039Z,18.02
2022-09-15T02:11:18.831Z,17.77
2022-09-15T02:14:48.315Z,17.70
2022-09-15T02:17:55.694Z,17.65
2022-09-15T02:21:10.777Z,17.75
2022-09-15T02:24:20.259Z,17.96
2022-09-15T02:27:25.416Z,17.98
2022-09-15T02:30:29.781Z,17.91
2022-09-15T02:33:41.137Z,17.13
2022-09-15T02:36:45.748Z,16.51
2022-09-15T02:39:53.727Z,16.35
2022-09-15T02:43:05.574Z,16.30
2022-09-15T02:46:08.396Z,16.28
2022-09-15T02:49:11.165Z,16.26
2022-09-15T02:52:14.863Z,16.42
2022-09-15T02:55:17.057Z,16.48
2022-09-15T02:58:19.382Z,16.68
2022-09-15T03:01:31.995Z,16.89
2022-09-15T03:04:34.173Z,16.75
2022-09-15T03:07:38.285Z,16.86
2022-09-15T03:10:40.695Z,17.03
2022-09-15T03:13:43.378Z,16.94
2022-09-15T03:16:45.615Z,16.76
2022-09-15T03:19:48.047Z,17.30
2022-09-15T03:22:51.203Z,17.58
2022-09-15T03:25:53.778Z,17.75
2022-09-15T03:28:55.913Z,17.43
2022-09-15T03:31:58.573Z,17.61
2022-09-15T03:35:01.025Z,17.70
2022-09-15T03:38:03.701Z,17.44
2022-09-15T03:41:11.649Z,17.38
2022-09-15T03:44:13.979Z,17.45
2022-09-15T03:47:16.647Z,17.61
2022-09-15T03:50:19.075Z,17.70
2022-09-15T03:53:21.597Z,17.78
2022-09-15T03:56:32.845Z,17.94
2022-09-15T03:59:35.077Z,19.10
2022-09-15T04:02:37.600Z,20.03
2022-09-15T04:05:40.283Z,20.41
2022-09-15T04:08:43.252Z,20.77
2022-09-15T04:11:45.314Z,21.01
2022-09-15T04:14:47.916Z,21.12
2022-09-15T04:17:49.918Z,21.05
2022-09-15T04:20:52.384Z,21.22
2022-09-15T04:23:55.080Z,20.88
2022-09-15T04:26:57.363Z,20.85
2022-09-15T04:29:59.484Z,21.14
2022-09-15T04:33:03.384Z,20.43
2022-09-15T04:36:08.375Z,19.28
2022-09-15T04:39:10.921Z,18.33
2022-09-15T04:42:12.933Z,17.82
2022-09-15T04:45:15.407Z,16.70
2022-09-15T04:48:18.094Z,16.39
2022-09-15T04:51:22.549Z,16.55
2022-09-15T04:54:24.844Z,16.47
2022-09-15T04:57:27.246Z,16.75
2022-09-15T05:00:30.480Z,17.23
2022-09-15T05:03:36.551Z,18.33
2022-09-15T05:06:39.090Z,19.44
2022-09-15T05:09:41.451Z,20.20
2022-09-15T05:12:43.890Z,20.50
2022-09-15T05:15:46.349Z,20.27
2022-09-15T05:18:50.413Z,20.40
2022-09-15T05:21:52.833Z,20.54
2022-09-15T05:24:54.932Z,20.66
2022-09-15T05:27:57.859Z,20.68
2022-09-15T05:31:00.459Z,20.98
2022-09-15T05:34:05.751Z,21.21
2022-09-15T05:37:07.975Z,21.41
2022-09-15T05:40:10.968Z,21.53
2022-09-15T05:43:13.650Z,21.62
2022-09-15T05:46:17.607Z,21.56
2022-09-15T05:49:20.308Z,19.89
2022-09-15T05:52:23.192Z,16.82
2022-09-15T05:55:25.299Z,16.22
2022-09-15T05:58:28.183Z,15.84
2022-09-15T06:01:31.448Z,15.56
2022-09-15T06:04:35.146Z,15.84
2022-09-15T06:07:37.728Z,15.80
2022-09-15T06:10:40.293Z,15.90
2022-09-15T06:13:43.738Z,15.80
2022-09-15T06:16:46.491Z,15.77
2022-09-15T06:19:49.099Z,15.83
2022-09-15T06:22:52.851Z,15.85
2022-09-15T06:25:56.705Z,16.01
2022-09-15T06:29:02.326Z,15.84
2022-09-15T06:32:07.581Z,15.83
2022-09-15T06:35:10.843Z,15.77
2022-09-15T06:38:13.813Z,15.90
2022-09-15T06:41:17.032Z,15.90
2022-09-15T06:44:20.123Z,16.07
2022-09-15T06:47:22.791Z,15.93
2022-09-15T06:50:25.644Z,15.94
2022-09-15T06:53:30.460Z,15.83
2022-09-15T06:56:37.883Z,16.02
2022-09-15T06:59:41.720Z,16.14
2022-09-15T07:02:45.310Z,16.12
2022-09-15T07:05:48.121Z,16.21
2022-09-15T07:08:51.170Z,16.26
2022-09-15T07:11:54.271Z,16.28
2022-09-15T07:14:56.653Z,16.29
2022-09-15T07:17:59.643Z,16.26
2022-09-15T07:21:07.612Z,16.33
2022-09-15T07:24:11.247Z,16.42
2022-09-15T07:27:14.336Z,16.49
2022-09-15T07:30:16.813Z,16.58
2022-09-15T07:33:19.265Z,16.63
2022-09-15T07:36:22.250Z,16.52
2022-09-15T07:39:24.736Z,16.60
2022-09-15T07:42:28.627Z,16.76
2022-09-15T07:45:33.898Z,17.16
2022-09-15T07:48:36.250Z,17.53
2022-09-15T07:51:39.331Z,17.21
2022-09-15T07:55:35.446Z,18.02
2022-09-15T07:58:40.515Z,18.67
2022-09-15T08:02:28.435Z,18.70
2022-09-15T08:05:32.929Z,18.08
2022-09-15T08:08:40.553Z,17.84
2022-09-15T08:11:43.619Z,17.82
2022-09-15T08:14:47.547Z,17.65
2022-09-15T08:17:51.916Z,17.30
2022-09-15T08:20:56.092Z,17.16
2022-09-15T08:24:01.599Z,17.37
2022-09-15T08:27:04.689Z,17.74
2022-09-15T08:30:08.607Z,17.63
2022-09-15T08:33:12.935Z,17.81
2022-09-15T08:36:15.959Z,17.09
2022-09-15T08:39:19.000Z,16.93
2022-09-15T08:42:24.233Z,17.04
2022-09-15T08:45:31.412Z,17.47
2022-09-15T08:48:42.051Z,17.38
2022-09-15T08:51:49.547Z,17.37
2022-09-15T08:54:58.348Z,17.31
2022-09-15T08:58:01.591Z,17.53
2022-09-15T09:01:14.395Z,17.34
2022-09-15T09:04:22.736Z,17.63
2022-09-15T09:07:52.953Z,17.37
2022-09-15T09:11:08.517Z,18.90
2022-09-15T09:14:46.671Z,18.53
2022-09-15T09:18:05.197Z,17.51
2022-09-15T09:21:14.205Z,17.23
2022-09-15T09:24:40.662Z,17.33
2022-09-15T09:27:43.943Z,18.42
2022-09-15T09:30:48.693Z,18.26
2022-09-15T09:33:54.373Z,18.47
2022-09-15T09:37:09.111Z,18.76
2022-09-15T09:40:17.440Z,18.01
2022-09-15T09:43:20.335Z,18.15
2022-09-15T09:46:22.971Z,17.91
2022-09-15T09:49:28.436Z,17.94
2022-09-15T09:52:37.260Z,17.60
2022-09-15T09:55:42.598Z,17.63
2022-09-15T09:58:44.941Z,17.63
2022-09-15T10:02:06.367Z,17.57
2022-09-15T10:05:09.034Z,17.64
2022-09-15T10:08:20.329Z,17.79
2022-09-15T10:11:38.671Z,18.10
2022-09-15T10:14:42.443Z,18.24
2022-09-15T10:17:48.008Z,17.94
2022-09-15T10:20:52.190Z,18.09
2022-09-15T10:23:55.851Z,17.82
2022-09-15T10:27:16.092Z,17.96
2022-09-15T10:30:19.413Z,17.81
2022-09-15T10:33:30.429Z,17.94
2022-09-15T10:36:32.883Z,18.13
2022-09-15T10:39:53.419Z,18.10
2022-09-15T10:43:12.346Z,17.65
2022-09-15T10:46:28.730Z,17.98
2022-09-15T10:49:59.440Z,18.33
2022-09-15T10:53:31.113Z,18.42
2022-09-15T10:56:41.623Z,18.55
2022-09-15T11:00:08.886Z,18.67
2022-09-15T11:03:24.476Z,18.81
2022-09-15T11:06:42.429Z,18.90
2022-09-15T11:09:55.427Z,18.76
2022-09-15T11:13:08.354Z,18.81
2022-09-15T11:16:16.605Z,18.99
2022-09-15T11:19:31.045Z,18.80
2022-09-15T11:22:44.079Z,18.16
2022-09-15T11:26:04.411Z,17.73
2022-09-15T11:29:18.147Z,17.68
2022-09-15T11:32:42.819Z,17.71
2022-09-15T11:35:47.328Z,17.88
2022-09-15T11:38:54.182Z,17.64
2022-09-15T11:42:05.890Z,17.88
2022-09-15T11:45:19.344Z,17.70
2022-09-15T11:48:37.419Z,17.65
2022-09-15T11:51:48.027Z,18.06
2022-09-15T11:55:23.887Z,17.67
2022-09-15T11:58:35.192Z,17.77
2022-09-15T12:01:51.515Z,17.64
2022-09-15T12:05:12.395Z,17.68
2022-09-15T12:08:17.216Z,17.68
2022-09-15T12:11:26.469Z,17.77
2022-09-15T12:14:46.878Z,17.88
2022-09-15T12:18:34.382Z,17.71
2022-09-15T12:21:54.209Z,17.82
2022-09-15T12:25:00.733Z,18.29
2022-09-15T12:31:41.155Z,18.26
2022-09-15T12:34:59.797Z,18.18
2022-09-15T12:38:04.081Z,18.47
2022-09-15T12:41:11.811Z,18.33
2022-09-15T12:44:32.453Z,18.36
2022-09-15T12:47:41.839Z,18.49
2022-09-15T12:51:03.553Z,18.45
2022-09-15T12:54:09.187Z,17.71
2022-09-15T12:57:29.565Z,17.70
2022-09-15T13:01:00.628Z,18.37
2022-09-15T13:04:05.426Z,18.35
2022-09-15T13:07:18.586Z,17.98
2022-09-15T13:10:35.903Z,17.65
2022-09-15T13:13:48.299Z,17.48
2022-09-15T13:16:59.745Z,17.43
2022-09-15T13:20:10.169Z,17.50
2022-09-15T13:23:15.176Z,18.01
2022-09-15T13:26:23.126Z,19.52
2022-09-15T13:29:29.234Z,19.22
2022-09-15T13:32:56.368Z,18.81
2022-09-15T13:38:03.898Z,20.03
2022-09-15T13:40:34.141Z,18.87
2022-09-15T13:44:06.390Z,19.00
2022-09-15T13:47:34.883Z,19.81
2022-09-15T13:50:43.303Z,18.97
2022-09-15T13:53:59.926Z,17.33
2022-09-15T13:57:03.177Z,17.04
2022-09-15T14:00:11.283Z,16.82
2022-09-15T14:03:43.729Z,16.79
2022-09-15T14:06:48.961Z,17.00
2022-09-15T14:09:52.743Z,17.41
2022-09-15T14:13:00.149Z,17.24
2022-09-15T14:16:34.447Z,17.21
2022-09-15T14:19:38.919Z,17.17
2022-09-15T14:22:41.748Z,17.19
2022-09-15T14:25:49.652Z,17.40
2022-09-15T14:28:59.995Z,17.26
2022-09-15T14:32:04.825Z,17.27
2022-09-15T14:35:19.738Z,17.10
2022-09-15T14:38:25.175Z,17.04
2022-09-15T14:41:38.898Z,16.87
2022-09-15T14:48:17.146Z,16.80
2022-09-15T14:51:33.919Z,16.93
2022-09-15T14:54:38.441Z,16.87
2022-09-15T14:57:47.634Z,17.19
2022-09-15T15:00:55.517Z,16.92
2022-09-15T15:04:20.578Z,16.97
2022-09-15T15:07:31.263Z,16.90
2022-09-15T15:10:36.004Z,16.89
2022-09-15T15:13:42.765Z,17.44
2022-09-15T15:17:01.040Z,17.74
2022-09-15T15:20:06.471Z,19.12
2022-09-15T15:23:24.314Z,19.71
2022-09-15T15:26:36.079Z,19.81
2022-09-15T15:29:40.630Z,20.83
2022-09-15T15:32:43.643Z,20.90
2022-09-15T15:35:46.670Z,20.47
2022-09-15T15:38:56.906Z,19.10
2022-09-15T15:42:02.933Z,19.36
2022-09-15T15:45:09.827Z,19.14
2022-09-15T15:48:12.759Z,18.66
2022-09-15T15:51:15.899Z,19.03
2022-09-15T15:54:20.244Z,18.26
2022-09-15T15:57:25.762Z,16.73
2022-09-15T16:00:44.479Z,17.78
2022-09-15T16:03:48.103Z,17.64
2022-09-15T16:06:51.474Z,17.24
2022-09-15T16:09:55.450Z,16.99
2022-09-15T16:12:58.222Z,17.68
2022-09-15T16:16:01.726Z,16.45
2022-09-15T16:19:05.174Z,16.26
2022-09-15T16:22:11.012Z,16.02
2022-09-15T16:25:18.240Z,15.84
2022-09-15T16:28:21.560Z,15.75
2022-09-15T16:31:24.734Z,15.67
2022-09-15T16:34:27.690Z,15.53
2022-09-15T16:37:30.275Z,15.43
2022-09-15T16:40:32.973Z,15.30
2022-09-15T16:43:35.039Z,15.24
2022-09-15T16:46:37.648Z,15.19
2022-09-15T16:49:40.120Z,15.20
2022-09-15T16:52:43.224Z,15.27
2022-09-15T16:55:53.483Z,15.42
2022-09-15T16:59:00.552Z,15.58
2022-09-15T17:02:04.248Z,15.60
2022-09-15T17:05:21.547Z,15.37
2022-09-15T17:08:32.841Z,15.34
2022-09-15T17:11:37.260Z,15.22
2022-09-15T17:14:39.515Z,15.19
2022-09-15T17:17:42.191Z,15.12
2022-09-15T17:20:45.984Z,14.57
2022-09-15T17:23:49.812Z,13.87
2022-09-15T17:26:52.604Z,13.49
2022-09-15T17:29:56.008Z,13.76
2022-09-15T17:33:11.659Z,13.80
2022-09-15T17:36:15.142Z,13.87
2022-09-15T17:39:17.790Z,13.93
2022-09-15T17:42:21.325Z,13.93
2022-09-15T17:45:35.237Z,14.11
2022-09-15T17:48:39.538Z,14.28
2022-09-15T17:51:41.642Z,14.61
2022-09-15T17:54:44.542Z,16.53
2022-09-15T17:57:48.872Z,18.16
2022-09-15T18:00:52.563Z,18.52
2022-09-15T18:03:55.003Z,18.99
2022-09-15T18:06:59.319Z,18.77
2022-09-15T18:10:02.607Z,18.90
2022-09-15T18:13:06.566Z,19.61
2022-09-15T18:16:13.292Z,19.82
2022-09-15T18:19:17.030Z,20.16
2022-09-15T18:22:22.123Z,20.09
2022-09-15T18:25:36.893Z,19.01
2022-09-15T18:28:38.880Z,19.79
2022-09-15T18:31:41.492Z,19.30
2022-09-15T18:34:45.210Z,18.93
2022-09-15T18:37:54.203Z,19.01
2022-09-15T18:40:57.240Z,19.14
2022-09-15T18:44:00.723Z,17.67
2022-09-15T18:47:02.981Z,18.05
2022-09-15T18:50:07.166Z,18.49
2022-09-15T18:53:10.175Z,18.59
2022-09-15T18:56:14.779Z,18.21
2022-09-15T18:59:17.886Z,19.20
2022-09-15T19:02:20.426Z,19.50
2022-09-15T19:05:24.181Z,19.85
2022-09-15T19:08:26.811Z,19.52
2022-09-15T19:11:30.104Z,18.80
2022-09-15T19:14:33.959Z,19.41
2022-09-15T19:17:37.503Z,17.94
2022-09-15T19:20:41.822Z,16.41
2022-09-15T19:23:46.634Z,15.16
2022-09-15T19:26:49.687Z,14.82
2022-09-15T19:29:52.234Z,14.51
2022-09-15T19:32:56.281Z,15.22
2022-09-15T19:36:26.819Z,16.87
2022-09-15T19:39:33.847Z,17.54
2022-09-15T19:42:38.418Z,16.38
2022-09-15T19:45:43.590Z,14.96
2022-09-15T19:48:49.343Z,13.97
2022-09-15T19:51:55.763Z,13.77
2022-09-15T19:55:01.293Z,13.65
2022-09-15T19:58:07.658Z,13.78
2022-09-15T20:01:11.737Z,13.70
2022-09-15T20:04:17.852Z,13.73
2022-09-15T20:07:23.238Z,13.94
2022-09-15T20:10:29.026Z,14.25
2022-09-15T20:13:35.429Z,15.80
2022-09-15T20:16:40.749Z,17.88
2022-09-15T20:19:46.254Z,18.55
2022-09-15T20:22:50.341Z,19.38
2022-09-15T20:26:06.343Z,19.72
2022-09-15T20:29:11.970Z,19.93
2022-09-15T20:32:16.667Z,20.16
2022-09-15T20:35:22.455Z,20.23
2022-09-15T20:38:29.582Z,20.36
2022-09-15T20:41:35.932Z,20.39
2022-09-15T20:44:41.090Z,20.47
2022-09-15T20:47:45.281Z,20.48
2022-09-15T20:50:50.391Z,20.17
2022-09-15T20:53:57.152Z,20.53
2022-09-15T20:57:00.671Z,20.71
2022-09-15T21:00:08.258Z,20.88
2022-09-15T21:03:13.232Z,20.95
2022-09-15T21:06:20.707Z,21.04
2022-09-15T21:09:23.783Z,21.15
2022-09-15T21:12:26.333Z,21.19
2022-09-15T21:15:30.212Z,21.19
2022-09-15T21:18:36.427Z,20.90
2022-09-15T21:21:39.769Z,20.17
2022-09-15T21:24:42.405Z,19.41
2022-09-15T21:27:46.860Z,17.33
2022-09-15T21:30:49.920Z,15.78
2022-09-15T21:33:53.886Z,15.20
2022-09-15T21:36:59.521Z,15.03
2022-09-15T21:40:02.486Z,14.81
2022-09-15T21:43:05.080Z,14.62
2022-09-15T21:46:12.123Z,14.64
2022-09-15T21:49:19.837Z,14.73
2022-09-15T21:52:22.860Z,14.91
2022-09-15T21:55:26.123Z,15.20
2022-09-15T21:58:41.741Z,15.32
2022-09-15T22:01:45.719Z,15.47
2022-09-15T22:04:48.673Z,16.56
2022-09-15T22:07:51.248Z,16.18
2022-09-15T22:10:59.993Z,16.09
2022-09-15T22:14:04.434Z,16.94
2022-09-15T22:17:06.565Z,15.93
2022-09-15T22:20:09.919Z,15.46
2022-09-15T22:23:12.172Z,16.25
2022-09-15T22:26:17.509Z,18.37
2022-09-15T22:29:19.704Z,19.90
2022-09-15T22:32:22.397Z,20.64
2022-09-15T22:35:25.398Z,21.04
2022-09-15T22:38:30.281Z,20.16
2022-09-15T22:41:35.108Z,18.09
2022-09-15T22:44:37.603Z,15.56
2022-09-15T22:47:39.807Z,14.52
2022-09-15T22:50:46.671Z,14.13
2022-09-15T22:53:54.944Z,13.71
2022-09-15T22:56:58.291Z,13.69
2022-09-15T23:00:01.859Z,13.76
2022-09-15T23:03:05.200Z,13.76
2022-09-15T23:06:09.454Z,13.69
2022-09-15T23:09:12.619Z,13.71
2022-09-15T23:12:14.951Z,14.21
2022-09-15T23:15:19.170Z,14.30
2022-09-15T23:18:21.810Z,15.60
2022-09-15T23:21:24.857Z,15.58
2022-09-15T23:24:26.943Z,17.35
2022-09-15T23:27:30.219Z,19.20
2022-09-15T23:30:32.304Z,19.86
2022-09-15T23:33:34.912Z,20.06
2022-09-15T23:36:38.029Z,20.29
2022-09-15T23:39:40.611Z,20.47
2022-09-15T23:42:42.885Z,20.53
2022-09-15T23:45:47.425Z,20.67
2022-09-15T23:48:49.578Z,20.84
2022-09-15T23:51:52.393Z,20.88
2022-09-15T23:54:54.624Z,20.84
2022-09-15T23:57:57.359Z,20.83
